Time;durP1;ratioP1;P1;durP2;ratioP2;P2;SDS_P1;SDS_P2;PMS_P1;PMS_P2;Temp;Humidity;BMP_temperature;BMP_pressure;BME280_temperature;BME280_humidity;BME280_pressure;Samples;Min_cycle;Max_cycle;Signal;HPM_P1;HPM_P2
2022/11/09 00:02:15;;;;;;;11.27;8.85;;;;;;;;;;5053338;28;20035;-71
2022/11/09 00:04:41;;;;;;;12.82;9.65;;;;;;;;;;5053295;28;20060;-71
2022/11/09 00:07:06;;;;;;;11.65;9.23;;;;;;;;;;5053332;28;20107;-72
2022/11/09 00:09:32;;;;;;;14.05;10.02;;;;;;;;;;5053017;28;20175;-70
2022/11/09 00:11:58;;;;;;;13.77;9.25;;;;;;;;;;5053337;28;20060;-68
2022/11/09 00:14:24;;;;;;;11.80;8.85;;;;;;;;;;5053106;28;20036;-67
2022/11/09 00:16:50;;;;;;;11.48;8.93;;;;;;;;;;5053173;28;20037;-71
2022/11/09 00:19:15;;;;;;;13.60;9.98;;;;;;;;;;5053176;28;20461;-71
2022/11/09 00:21:41;;;;;;;12.80;9.45;;;;;;;;;;5052960;28;20555;-73
2022/11/09 00:24:06;;;;;;;11.80;9.32;;;;;;;;;;5052840;28;20029;-73
2022/11/09 00:26:32;;;;;;;12.10;9.52;;;;;;;;;;5053115;28;20037;-71
2022/11/09 00:28:57;;;;;;;12.02;8.80;;;;;;;;;;5052896;28;20057;-69
2022/11/09 00:31:23;;;;;;;13.25;9.88;;;;;;;;;;5052640;28;20037;-69
2022/11/09 00:33:54;;;;;;;11.77;9.30;;;;;;;;;;5053118;28;20105;-69
2022/11/09 00:36:21;;;;;;;13.98;9.00;;;;;;;;;;5051548;28;20392;-68
2022/11/09 00:38:52;;;;;;;12.10;9.38;;;;;;;;;;5052865;28;20033;-69
2022/11/09 00:41:18;;;;;;;15.35;10.30;;;;;;;;;;5052937;28;20056;-68
2022/11/09 00:43:44;;;;;;;11.98;8.90;;;;;;;;;;5052686;28;20056;-69
2022/11/09 00:46:09;;;;;;;12.60;9.07;;;;;;;;;;5048708;28;20037;-69
2022/11/09 00:48:35;;;;;;;11.98;9.70;;;;;;;;;;5033631;28;20033;-69
2022/11/09 00:51:01;;;;;;;11.32;8.75;;;;;;;;;;5033336;28;20138;-68
2022/11/09 00:53:27;;;;;;;12.88;9.15;;;;;;;;;;5033233;28;20030;-68
2022/11/09 00:55:57;;;;;;;11.95;9.40;;;;;;;;;;5033185;28;20034;-68
2022/11/09 00:58:24;;;;;;;11.30;8.77;;;;;;;;;;5033225;28;20041;-69
2022/11/09 01:00:50;;;;;;;11.25;9.30;;;;;;;;;;5033191;28;20036;-69
2022/11/09 01:03:16;;;;;;;11.45;9.15;;;;;;;;;;5033136;28;20595;-69
2022/11/09 01:05:42;;;;;;;13.55;9.43;;;;;;;;;;5032035;28;20039;-68
2022/11/09 01:08:08;;;;;;;11.43;9.00;;;;;;;;;;5031261;28;20049;-68
2022/11/09 01:10:38;;;;;;;10.40;8.43;;;;;;;;;;5013457;28;20457;-69
2022/11/09 01:13:03;;;;;;;12.55;9.10;;;;;;;;;;5013296;28;20056;-68
2022/11/09 01:15:29;;;;;;;12.82;9.07;;;;;;;;;;5013171;28;20040;-68
2022/11/09 01:17:54;;;;;;;11.85;8.90;;;;;;;;;;5013487;28;20034;-69
2022/11/09 01:20:20;;;;;;;11.80;8.85;;;;;;;;;;5013050;28;20022;-68
2022/11/09 01:22:46;;;;;;;11.65;9.07;;;;;;;;;;5012963;28;20117;-68
2022/11/09 01:25:11;;;;;;;11.00;8.43;;;;;;;;;;5013009;28;20084;-68
2022/11/09 01:27:37;;;;;;;11.38;8.80;;;;;;;;;;5012788;28;20113;-68
2022/11/09 01:30:02;;;;;;;12.48;8.95;;;;;;;;;;5014648;28;20034;-67
2022/11/09 01:32:31;;;;;;;12.65;9.10;;;;;;;;;;5032645;28;20029;-68
2022/11/09 01:34:56;;;;;;;12.18;9.52;;;;;;;;;;5032471;28;20088;-68
2022/11/09 01:37:22;;;;;;;11.00;8.88;;;;;;;;;;5032740;28;20025;-68
2022/11/09 01:39:47;;;;;;;10.73;8.80;;;;;;;;;;5032605;28;20436;-69
2022/11/09 01:42:14;;;;;;;12.32;8.52;;;;;;;;;;5032295;28;20048;-68
2022/11/09 01:44:39;;;;;;;11.07;8.65;;;;;;;;;;5032490;28;20060;-68
2022/11/09 01:47:25;;;;;;;13.38;9.70;;;;;;;;;;5036552;28;20418;-68
2022/11/09 01:49:53;;;;;;;11.00;8.35;;;;;;;;;;5031026;28;20049;-68
2022/11/09 01:52:26;;;;;;;11.85;9.32;;;;;;;;;;5031478;28;20481;-69
2022/11/09 01:54:59;;;;;;;12.60;9.38;;;;;;;;;;5031285;28;20039;-68
2022/11/09 01:57:53;;;;;;;11.77;8.88;;;;;;;;;;5031220;28;20561;-68
2022/11/09 02:00:18;;;;;;;12.43;8.95;;;;;;;;;;5030989;28;20038;-68
2022/11/09 02:03:04;;;;;;;11.55;9.27;;;;;;;;;;5029823;28;20507;-69
2022/11/09 02:05:33;;;;;;;10.68;8.18;;;;;;;;;;5031122;28;20110;-68
2022/11/09 02:08:01;;;;;;;11.45;8.60;;;;;;;;;;5031054;28;20401;-68
2022/11/09 02:10:46;;;;;;;12.55;8.95;;;;;;;;;;5031051;28;20358;-68
2022/11/09 02:13:14;;;;;;;14.70;9.05;;;;;;;;;;5031011;28;20053;-68
2022/11/09 02:15:40;;;;;;;11.60;8.90;;;;;;;;;;5038196;28;20028;-68
2022/11/09 02:18:07;;;;;;;10.75;8.20;;;;;;;;;;5051905;28;20040;-68
2022/11/09 02:20:45;;;;;;;11.18;8.85;;;;;;;;;;5051601;28;20160;-68
2022/11/09 02:23:11;;;;;;;9.85;8.30;;;;;;;;;;5051884;28;20048;-68
2022/11/09 02:25:37;;;;;;;11.30;8.43;;;;;;;;;;5051514;28;20106;-69
2022/11/09 02:28:03;;;;;;;10.05;8.05;;;;;;;;;;5051500;28;20048;-68
2022/11/09 02:30:29;;;;;;;10.35;8.55;;;;;;;;;;5051405;28;20029;-68
2022/11/09 02:32:54;;;;;;;10.98;8.70;;;;;;;;;;5011998;28;20433;-68
2022/11/09 02:35:20;;;;;;;11.50;8.48;;;;;;;;;;5011705;28;20026;-68
2022/11/09 02:37:49;;;;;;;12.10;8.70;;;;;;;;;;5011513;28;20084;-67
2022/11/09 02:40:25;;;;;;;10.93;8.73;;;;;;;;;;5011665;28;20030;-67
2022/11/09 02:42:51;;;;;;;11.38;8.45;;;;;;;;;;5014619;28;20112;-68
2022/11/09 02:45:17;;;;;;;13.02;9.30;;;;;;;;;;5031120;28;20532;-70
2022/11/09 02:47:42;;;;;;;12.38;8.98;;;;;;;;;;5031212;28;20112;-68
2022/11/09 02:50:09;;;;;;;11.45;9.13;;;;;;;;;;5031285;28;20071;-68
2022/11/09 02:52:34;;;;;;;11.02;9.23;;;;;;;;;;5031150;28;20029;-69
2022/11/09 02:55:00;;;;;;;12.52;9.32;;;;;;;;;;5029380;28;20037;-69
2022/11/09 02:57:25;;;;;;;12.05;9.30;;;;;;;;;;5031350;28;20030;-70
2022/11/09 02:59:51;;;;;;;12.23;9.82;;;;;;;;;;5030899;28;20523;-71
2022/11/09 03:02:16;;;;;;;14.25;9.07;;;;;;;;;;5031281;28;20039;-70
2022/11/09 03:04:42;;;;;;;12.95;9.57;;;;;;;;;;5031251;28;20386;-71
2022/11/09 03:07:07;;;;;;;14.13;9.82;;;;;;;;;;5030924;28;20025;-71
2022/11/09 03:09:33;;;;;;;11.93;8.75;;;;;;;;;;5030588;28;20099;-70
2022/11/09 03:12:27;;;;;;;12.52;9.48;;;;;;;;;;5031393;28;20381;-70
2022/11/09 03:14:44;;;;;;;19.05;9.90;;;;;;;;;;5037322;28;20094;-69
2022/11/09 03:17:09;;;;;;;13.35;9.40;;;;;;;;;;5031640;28;20026;-69
2022/11/09 03:19:35;;;;;;;11.75;9.73;;;;;;;;;;5031358;28;20056;-67
2022/11/09 03:22:00;;;;;;;11.35;9.40;;;;;;;;;;5031456;28;20021;-69
2022/11/09 03:24:26;;;;;;;14.82;10.02;;;;;;;;;;5022540;28;20033;-69
2022/11/09 03:26:51;;;;;;;13.25;9.32;;;;;;;;;;5021668;28;20069;-70
2022/11/09 03:29:17;;;;;;;14.00;9.43;;;;;;;;;;5029267;28;20026;-70
2022/11/09 03:31:42;;;;;;;12.63;9.75;;;;;;;;;;5031509;28;20025;-70
2022/11/09 03:34:08;;;;;;;12.25;9.50;;;;;;;;;;5028765;28;20034;-69
2022/11/09 03:36:33;;;;;;;14.75;9.35;;;;;;;;;;5030034;28;20148;-70
2022/11/09 03:38:59;;;;;;;13.30;9.82;;;;;;;;;;5028813;28;20030;-70
2022/11/09 03:41:24;;;;;;;12.25;9.63;;;;;;;;;;5029879;28;20025;-70
2022/11/09 03:43:50;;;;;;;12.52;10.07;;;;;;;;;;5028928;28;20037;-70
2022/11/09 03:46:15;;;;;;;12.13;9.43;;;;;;;;;;5031248;28;20029;-69
2022/11/09 03:48:41;;;;;;;13.70;9.35;;;;;;;;;;5031555;28;20048;-69
2022/11/09 03:51:06;;;;;;;13.95;9.50;;;;;;;;;;5028707;28;20021;-69
2022/11/09 03:53:32;;;;;;;12.13;9.07;;;;;;;;;;5032174;28;20393;-69
2022/11/09 03:55:57;;;;;;;12.63;9.60;;;;;;;;;;5032201;28;20033;-70
2022/11/09 03:58:23;;;;;;;11.77;9.30;;;;;;;;;;5033023;28;20469;-70
2022/11/09 04:00:49;;;;;;;12.75;9.32;;;;;;;;;;5032637;28;20033;-69
2022/11/09 04:03:15;;;;;;;13.52;9.40;;;;;;;;;;5031954;28;20017;-70
2022/11/09 04:05:40;;;;;;;15.35;9.75;;;;;;;;;;5031471;28;20026;-70
2022/11/09 04:08:06;;;;;;;11.43;8.80;;;;;;;;;;5031903;28;20393;-69
2022/11/09 04:10:31;;;;;;;12.70;9.25;;;;;;;;;;5030872;28;20522;-69
2022/11/09 04:12:57;;;;;;;12.38;9.52;;;;;;;;;;5032280;28;20457;-69
2022/11/09 04:15:23;;;;;;;11.30;9.15;;;;;;;;;;5032184;28;20057;-69
2022/11/09 04:17:58;;;;;;;12.60;9.23;;;;;;;;;;5031936;28;20087;-69
2022/11/09 04:20:26;;;;;;;13.57;9.60;;;;;;;;;;5031837;28;20477;-69
2022/11/09 04:23:03;;;;;;;18.65;9.50;;;;;;;;;;5032294;28;20040;-69
2022/11/09 04:25:33;;;;;;;11.88;8.95;;;;;;;;;;5035542;28;20029;-69
2022/11/09 04:27:59;;;;;;;;;;;;;;;;;;5036047;28;20032;-69
2022/11/09 04:30:29;;;;;;;10.57;8.43;;;;;;;;;;5035813;28;19913;-69
2022/11/09 04:32:55;;;;;;;12.20;9.07;;;;;;;;;;5035512;28;20030;-69
2022/11/09 04:35:21;;;;;;;11.68;9.20;;;;;;;;;;5035405;28;20064;-69
2022/11/09 04:37:58;;;;;;;12.55;9.10;;;;;;;;;;5035269;28;20393;-69
2022/11/09 04:40:26;;;;;;;13.80;9.52;;;;;;;;;;5035512;28;20405;-69
2022/11/09 04:42:51;;;;;;;12.43;8.98;;;;;;;;;;5035298;28;20028;-69
2022/11/09 04:45:18;;;;;;;12.57;8.90;;;;;;;;;;5052535;28;20033;-69
2022/11/09 04:47:43;;;;;;;11.38;9.07;;;;;;;;;;5054349;28;20111;-69
2022/11/09 04:50:09;;;;;;;10.93;8.88;;;;;;;;;;5054140;28;20513;-69
2022/11/09 04:52:35;;;;;;;13.35;9.57;;;;;;;;;;5054078;28;20032;-69
2022/11/09 04:55:00;;;;;;;10.75;8.85;;;;;;;;;;5054600;28;20094;-69
2022/11/09 04:57:26;;;;;;;11.20;8.90;;;;;;;;;;5055003;28;20043;-69
2022/11/09 04:59:52;;;;;;;11.98;9.00;;;;;;;;;;5054887;28;20029;-69
2022/11/09 05:02:18;;;;;;;13.20;9.40;;;;;;;;;;5054894;28;20047;-69
2022/11/09 05:04:43;;;;;;;11.63;8.75;;;;;;;;;;5054711;28;20025;-69
2022/11/09 05:07:09;;;;;;;10.65;8.30;;;;;;;;;;5054707;28;20111;-69
2022/11/09 05:09:34;;;;;;;13.27;8.63;;;;;;;;;;5054353;28;20121;-69
2022/11/09 05:12:00;;;;;;;11.40;8.73;;;;;;;;;;5054690;28;20025;-69
2022/11/09 05:14:25;;;;;;;12.48;8.93;;;;;;;;;;5041296;28;20026;-69
2022/11/09 05:16:51;;;;;;;12.68;8.82;;;;;;;;;;5034537;28;20033;-69
2022/11/09 05:19:17;;;;;;;11.73;8.45;;;;;;;;;;5034527;28;20021;-69
2022/11/09 05:21:42;;;;;;;11.88;8.70;;;;;;;;;;5034501;28;20107;-69
2022/11/09 05:24:08;;;;;;;12.75;8.90;;;;;;;;;;5034326;28;20033;-69
2022/11/09 05:26:41;;;;;;;9.63;8.23;;;;;;;;;;5034446;28;20041;-69
2022/11/09 05:29:09;;;;;;;10.93;8.55;;;;;;;;;;5034281;28;20032;-70
2022/11/09 05:31:36;;;;;;;12.05;8.98;;;;;;;;;;5033111;28;20029;-69
2022/11/09 05:34:03;;;;;;;10.98;8.65;;;;;;;;;;5034146;28;20073;-69
2022/11/09 05:36:29;;;;;;;10.40;8.40;;;;;;;;;;5033505;28;20481;-69
2022/11/09 05:38:56;;;;;;;11.95;8.82;;;;;;;;;;5034306;28;20044;-69
2022/11/09 05:41:22;;;;;;;10.50;8.32;;;;;;;;;;5034155;28;20025;-69
2022/11/09 05:43:48;;;;;;;10.63;8.55;;;;;;;;;;5034062;28;20465;-69
2022/11/09 05:46:15;;;;;;;10.20;8.35;;;;;;;;;;5036589;28;20033;-69
2022/11/09 05:48:41;;;;;;;11.38;8.52;;;;;;;;;;5033958;28;20501;-69
2022/11/09 05:51:09;;;;;;;11.77;8.63;;;;;;;;;;5033990;28;20029;-69
2022/11/09 05:53:34;;;;;;;13.02;8.70;;;;;;;;;;5033835;28;20036;-69
2022/11/09 05:56:02;;;;;;;11.88;8.45;;;;;;;;;;5033654;28;20116;-69
2022/11/09 05:58:28;;;;;;;11.82;8.95;;;;;;;;;;5033782;28;20021;-69
2022/11/09 06:00:53;;;;;;;14.07;8.95;;;;;;;;;;5033618;28;20354;-69
2022/11/09 06:03:19;;;;;;;10.27;8.13;;;;;;;;;;5033659;28;20017;-69
2022/11/09 06:05:46;;;;;;;11.77;8.50;;;;;;;;;;5033482;28;20026;-69
2022/11/09 06:08:14;;;;;;;11.73;8.90;;;;;;;;;;5033389;28;20045;-69
2022/11/09 06:10:41;;;;;;;11.13;9.10;;;;;;;;;;5033388;28;20033;-69
2022/11/09 06:13:07;;;;;;;10.63;8.70;;;;;;;;;;5041665;28;20039;-69
2022/11/09 06:15:32;;;;;;;11.48;8.07;;;;;;;;;;5052245;28;20387;-69
2022/11/09 06:17:58;;;;;;;10.40;8.15;;;;;;;;;;5051112;28;20037;-69
2022/11/09 06:20:26;;;;;;;12.93;8.77;;;;;;;;;;5052268;28;20025;-70
2022/11/09 06:22:59;;;;;;;14.60;8.95;;;;;;;;;;5052584;28;20083;-69
2022/11/09 06:25:26;;;;;;;10.70;8.60;;;;;;;;;;5052940;28;20032;-69
2022/11/09 06:27:54;;;;;;;10.30;8.43;;;;;;;;;;5052782;28;20025;-69
2022/11/09 06:30:21;;;;;;;9.70;7.97;;;;;;;;;;5052239;28;20099;-69
2022/11/09 06:32:46;;;;;;;10.70;8.60;;;;;;;;;;5036772;28;20052;-69
2022/11/09 06:35:12;;;;;;;11.23;8.98;;;;;;;;;;5033289;28;20536;-69
2022/11/09 06:37:37;;;;;;;9.63;7.75;;;;;;;;;;5033785;28;20028;-69
2022/11/09 06:40:05;;;;;;;9.73;7.72;;;;;;;;;;5038714;28;20029;-69
2022/11/09 06:42:31;;;;;;;10.25;7.93;;;;;;;;;;5054285;28;20029;-69
2022/11/09 06:44:56;;;;;;;10.50;8.23;;;;;;;;;;5053168;28;20048;-69
2022/11/09 06:47:22;;;;;;;11.65;8.20;;;;;;;;;;5052876;28;20024;-70
2022/11/09 06:49:48;;;;;;;11.02;8.43;;;;;;;;;;5053220;28;20085;-69
2022/11/09 06:52:13;;;;;;;12.32;8.50;;;;;;;;;;5053167;28;20069;-68
2022/11/09 06:54:39;;;;;;;10.10;8.07;;;;;;;;;;5053193;28;20029;-68
2022/11/09 06:57:04;;;;;;;11.25;8.30;;;;;;;;;;5052749;28;20112;-69
2022/11/09 06:59:31;;;;;;;11.20;8.15;;;;;;;;;;5047521;28;20060;-69
2022/11/09 07:01:56;;;;;;;12.02;8.32;;;;;;;;;;5034757;28;20057;-69
2022/11/09 07:04:22;;;;;;;9.82;7.85;;;;;;;;;;5032964;28;20033;-69
2022/11/09 07:06:47;;;;;;;10.00;8.00;;;;;;;;;;5052884;28;20017;-70
2022/11/09 07:09:13;;;;;;;9.88;8.35;;;;;;;;;;5037810;28;20508;-69
2022/11/09 07:11:38;;;;;;;11.68;8.43;;;;;;;;;;5031238;28;20021;-69
2022/11/09 07:14:04;;;;;;;11.32;8.00;;;;;;;;;;5038986;28;20554;-68
2022/11/09 07:16:30;;;;;;;11.18;7.50;;;;;;;;;;5045924;28;20040;-69
2022/11/09 07:18:56;;;;;;;10.95;8.02;;;;;;;;;;5052579;28;20461;-68
2022/11/09 07:21:22;;;;;;;10.10;8.13;;;;;;;;;;5034726;28;20112;-68
2022/11/09 07:23:48;;;;;;;11.60;8.35;;;;;;;;;;5031520;28;20477;-68
2022/11/09 07:26:14;;;;;;;9.98;7.97;;;;;;;;;;5032284;28;20025;-68
2022/11/09 07:28:40;;;;;;;9.90;7.97;;;;;;;;;;5032348;28;20030;-68
2022/11/09 07:31:07;;;;;;;10.07;8.13;;;;;;;;;;5036858;28;20033;-68
2022/11/09 07:33:32;;;;;;;11.75;8.75;;;;;;;;;;5031870;28;20033;-69
2022/11/09 07:36:00;;;;;;;9.98;8.23;;;;;;;;;;5032229;28;20034;-69
2022/11/09 07:38:27;;;;;;;9.50;7.60;;;;;;;;;;5031087;28;20474;-69
2022/11/09 07:40:53;;;;;;;10.73;7.75;;;;;;;;;;5030079;28;20041;-69
2022/11/09 07:43:19;;;;;;;9.77;7.78;;;;;;;;;;5032481;28;20074;-69
2022/11/09 07:45:44;;;;;;;10.18;8.20;;;;;;;;;;5032075;28;20033;-69
2022/11/09 07:48:11;;;;;;;10.50;7.53;;;;;;;;;;5031701;28;20168;-69
2022/11/09 07:50:38;;;;;;;10.57;8.13;;;;;;;;;;5031490;28;20051;-69
2022/11/09 07:53:06;;;;;;;10.60;8.18;;;;;;;;;;5030275;28;20040;-69
2022/11/09 07:55:33;;;;;;;10.68;7.93;;;;;;;;;;5032042;28;20033;-69
2022/11/09 07:58:01;;;;;;;9.05;7.25;;;;;;;;;;5032729;28;20021;-69
2022/11/09 08:00:30;;;;;;;9.80;7.57;;;;;;;;;;5034727;28;20025;-69
2022/11/09 08:02:56;;;;;;;11.07;7.78;;;;;;;;;;5036044;28;20036;-69
2022/11/09 08:05:21;;;;;;;9.30;7.57;;;;;;;;;;5035877;28;20017;-69
2022/11/09 08:07:47;;;;;;;8.23;7.18;;;;;;;;;;5034518;28;20041;-69
2022/11/09 08:10:13;;;;;;;9.98;7.82;;;;;;;;;;5035810;28;20033;-68
2022/11/09 08:12:40;;;;;;;9.45;7.82;;;;;;;;;;5035838;28;20477;-70
2022/11/09 08:15:06;;;;;;;9.10;7.55;;;;;;;;;;5035709;28;20048;-70
2022/11/09 08:17:32;;;;;;;10.10;7.97;;;;;;;;;;5035051;28;20025;-69
2022/11/09 08:19:57;;;;;;;11.07;7.80;;;;;;;;;;5035821;28;20096;-70
2022/11/09 08:22:23;;;;;;;10.25;7.63;;;;;;;;;;5035769;28;20079;-69
2022/11/09 08:24:48;;;;;;;10.23;7.78;;;;;;;;;;5035446;28;20389;-70
2022/11/09 08:27:14;;;;;;;11.23;8.45;;;;;;;;;;5035537;28;20032;-69
2022/11/09 08:29:39;;;;;;;10.07;7.65;;;;;;;;;;5035421;28;20241;-69
2022/11/09 08:32:05;;;;;;;9.32;7.78;;;;;;;;;;5035386;28;20500;-69
2022/11/09 08:34:30;;;;;;;9.25;7.53;;;;;;;;;;5035342;28;20021;-69
2022/11/09 08:36:59;;;;;;;10.35;8.18;;;;;;;;;;5035440;28;20033;-70
2022/11/09 08:39:24;;;;;;;9.13;7.55;;;;;;;;;;5035859;28;20083;-70
2022/11/09 08:41:50;;;;;;;9.35;8.10;;;;;;;;;;5035557;28;20033;-69
2022/11/09 08:44:15;;;;;;;11.55;8.13;;;;;;;;;;5035201;28;20492;-70
2022/11/09 08:46:41;;;;;;;9.77;7.63;;;;;;;;;;5035502;28;20022;-70
2022/11/09 08:49:06;;;;;;;9.60;7.88;;;;;;;;;;5035331;28;20025;-70
2022/11/09 08:51:32;;;;;;;9.23;7.30;;;;;;;;;;5034042;28;20439;-70
2022/11/09 08:53:58;;;;;;;10.45;7.28;;;;;;;;;;5035058;28;20040;-70
2022/11/09 08:56:23;;;;;;;9.00;7.57;;;;;;;;;;5035166;28;20385;-69
2022/11/09 08:58:49;;;;;;;9.30;7.82;;;;;;;;;;5034888;28;20100;-70
2022/11/09 09:01:16;;;;;;;9.10;7.53;;;;;;;;;;5034807;28;20032;-70
2022/11/09 09:03:41;;;;;;;10.55;8.27;;;;;;;;;;5033797;28;20040;-70
2022/11/09 09:06:07;;;;;;;9.63;7.65;;;;;;;;;;5034768;28;20378;-70
2022/11/09 09:08:33;;;;;;;9.95;7.07;;;;;;;;;;5033189;28;20045;-69
2022/11/09 09:11:03;;;;;;;11.75;7.93;;;;;;;;;;5033734;28;20225;-70
2022/11/09 09:13:32;;;;;;;;;;;;;;;;;;5035087;28;20499;-70
2022/11/09 09:15:58;;;;;;;11.63;7.68;;;;;;;;;;5034460;28;20257;-70
2022/11/09 09:18:23;;;;;;;11.00;7.93;;;;;;;;;;5033218;28;20104;-70
2022/11/09 09:20:49;;;;;;;9.23;7.78;;;;;;;;;;5034446;28;20036;-70
2022/11/09 09:23:15;;;;;;;9.90;8.27;;;;;;;;;;5034359;28;20490;-70
2022/11/09 09:25:41;;;;;;;10.20;8.07;;;;;;;;;;5033508;28;20029;-69
2022/11/09 09:28:07;;;;;;;9.43;7.68;;;;;;;;;;5034361;28;20069;-69
2022/11/09 09:30:32;;;;;;;9.50;7.97;;;;;;;;;;5034269;28;20029;-70
2022/11/09 09:32:59;;;;;;;9.77;8.13;;;;;;;;;;5034201;28;20029;-69
2022/11/09 09:35:26;;;;;;;8.90;7.53;;;;;;;;;;5034344;28;20025;-69
2022/11/09 09:37:52;;;;;;;11.98;8.38;;;;;;;;;;5029438;28;20018;-70
2022/11/09 09:40:31;;;;;;;10.00;7.78;;;;;;;;;;5028609;28;20052;-70
2022/11/09 09:42:57;;;;;;;9.65;7.97;;;;;;;;;;5027543;28;20076;-69
2022/11/09 09:45:27;;;;;;;11.60;8.48;;;;;;;;;;5028174;28;20477;-70
2022/11/09 09:48:11;;;;;;;9.57;8.00;;;;;;;;;;5029696;28;20055;-70
2022/11/09 09:50:46;;;;;;;11.75;8.18;;;;;;;;;;5030029;28;20028;-69
2022/11/09 09:53:22;;;;;;;9.82;7.95;;;;;;;;;;5034081;28;20020;-70
2022/11/09 09:56:01;;;;;;;11.38;8.20;;;;;;;;;;5031944;28;20063;-69
2022/11/09 09:58:30;;;;;;;10.48;8.13;;;;;;;;;;5029662;28;20025;-69
2022/11/09 10:01:05;;;;;;;10.15;8.20;;;;;;;;;;5029418;28;20358;-69
2022/11/09 10:03:30;;;;;;;11.20;8.45;;;;;;;;;;5032585;28;20030;-70
2022/11/09 10:06:37;;;;;;;10.93;7.88;;;;;;;;;;5032481;28;20095;-70
2022/11/09 10:09:29;;;;;;;8.68;7.32;;;;;;;;;;5032011;28;20107;-69
2022/11/09 10:12:26;;;;;;;9.40;7.65;;;;;;;;;;5030529;28;20037;-69
2022/11/09 10:14:57;;;;;;;9.55;7.88;;;;;;;;;;5032086;28;20029;-69
2022/11/09 10:17:38;;;;;;;11.43;8.20;;;;;;;;;;5025674;28;20490;-72
2022/11/09 10:20:41;;;;;;;11.43;8.25;;;;;;;;;;5031757;28;20067;-69
2022/11/09 10:23:26;;;;;;;9.65;7.72;;;;;;;;;;5031709;28;20466;-72
2022/11/09 10:26:17;;;;;;;10.48;8.00;;;;;;;;;;5031608;28;20477;-69
2022/11/09 10:28:45;;;;;;;11.20;7.72;;;;;;;;;;5031465;28;20555;-70
2022/11/09 10:31:18;;;;;;;10.87;8.47;;;;;;;;;;5025569;28;20029;-71
2022/11/09 10:33:56;;;;;;;10.63;7.90;;;;;;;;;;5011777;28;20030;-69
2022/11/09 10:36:30;;;;;;;9.45;8.07;;;;;;;;;;5010304;28;20454;-69
2022/11/09 10:38:59;;;;;;;11.10;8.45;;;;;;;;;;5011703;28;20061;-69
2022/11/09 10:41:36;;;;;;;9.88;8.27;;;;;;;;;;5011562;28;20022;-69
2022/11/09 10:44:02;;;;;;;9.23;7.38;;;;;;;;;;5011615;28;20032;-70
2022/11/09 10:46:28;;;;;;;10.43;7.97;;;;;;;;;;5011838;28;20026;-69
2022/11/09 10:48:54;;;;;;;10.02;7.88;;;;;;;;;;5011423;28;20453;-69
2022/11/09 10:51:38;;;;;;;11.35;8.07;;;;;;;;;;5021078;28;20029;-69
2022/11/09 10:54:20;;;;;;;11.45;8.30;;;;;;;;;;5031293;28;20029;-69
2022/11/09 10:56:57;;;;;;;11.50;8.00;;;;;;;;;;5031102;28;20025;-69
2022/11/09 10:59:45;;;;;;;10.60;8.32;;;;;;;;;;5031123;28;20029;-68
2022/11/09 11:02:23;;;;;;;10.23;7.80;;;;;;;;;;5031083;28;20037;-68
2022/11/09 11:04:49;;;;;;;9.52;7.90;;;;;;;;;;5031293;28;20052;-72
2022/11/09 11:07:21;;;;;;;10.70;8.35;;;;;;;;;;5031075;28;20041;-69
2022/11/09 11:09:47;;;;;;;10.23;7.65;;;;;;;;;;5030263;28;20111;-74
2022/11/09 11:12:21;;;;;;;10.82;7.97;;;;;;;;;;5016827;28;20418;-70
2022/11/09 11:14:46;;;;;;;9.65;8.50;;;;;;;;;;5012102;28;20064;-70
2022/11/09 11:17:26;;;;;;;8.73;7.72;;;;;;;;;;5009772;28;20057;-74
2022/11/09 11:19:51;;;;;;;10.10;8.10;;;;;;;;;;5022116;28;20025;-68
2022/11/09 11:22:26;;;;;;;9.32;7.38;;;;;;;;;;5032149;28;20107;-75
2022/11/09 11:24:59;;;;;;;11.25;8.60;;;;;;;;;;5031075;28;20033;-71
2022/11/09 11:27:35;;;;;;;11.52;8.45;;;;;;;;;;5030566;28;20084;-70
2022/11/09 11:30:18;;;;;;;11.15;8.35;;;;;;;;;;5031005;28;20029;-71
2022/11/09 11:32:44;;;;;;;12.88;7.90;;;;;;;;;;5030007;28;20040;-75
2022/11/09 11:35:31;;;;;;;10.80;8.40;;;;;;;;;;5030900;28;20045;-70
2022/11/09 11:38:29;;;;;;;8.68;7.50;;;;;;;;;;5030644;28;20029;-71
2022/11/09 11:41:08;;;;;;;9.93;7.97;;;;;;;;;;5030640;28;20021;-69
2022/11/09 11:44:11;;;;;;;9.90;7.63;;;;;;;;;;5031096;28;20420;-74
2022/11/09 11:46:47;;;;;;;10.25;8.30;;;;;;;;;;5030678;28;20055;-73
2022/11/09 11:49:34;;;;;;;9.90;7.95;;;;;;;;;;5044931;28;20508;-74
2022/11/09 11:52:15;;;;;;;10.30;8.05;;;;;;;;;;5030540;28;20100;-74
2022/11/09 11:55:13;;;;;;;11.00;8.15;;;;;;;;;;5030582;28;20493;-75
2022/11/09 11:57:52;;;;;;;10.30;8.05;;;;;;;;;;5030916;28;20408;-69
2022/11/09 12:00:19;;;;;;;10.10;8.18;;;;;;;;;;5030425;28;20025;-74
2022/11/09 12:03:21;;;;;;;10.02;8.27;;;;;;;;;;5030589;28;20477;-74
2022/11/09 12:05:59;;;;;;;9.45;7.68;;;;;;;;;;5030314;28;20067;-71
2022/11/09 12:08:50;;;;;;;10.48;8.15;;;;;;;;;;5030268;28;20056;-71
2022/11/09 12:11:34;;;;;;;9.77;7.95;;;;;;;;;;5029715;28;20457;-69
2022/11/09 12:14:07;;;;;;;10.32;8.18;;;;;;;;;;5030377;28;20029;-69
2022/11/09 12:16:39;;;;;;;12.07;8.20;;;;;;;;;;5030175;28;20034;-71
2022/11/09 12:19:32;;;;;;;9.68;8.05;;;;;;;;;;5030382;28;20112;-67
2022/11/09 12:22:11;;;;;;;10.75;7.80;;;;;;;;;;5030470;28;20048;-67
2022/11/09 12:24:53;;;;;;;9.52;7.95;;;;;;;;;;5030399;28;20048;-67
2022/11/09 12:27:50;;;;;;;12.52;7.90;;;;;;;;;;5010940;28;20532;-66
2022/11/09 12:30:22;;;;;;;11.82;8.15;;;;;;;;;;5010477;28;20084;-67
2022/11/09 12:33:02;;;;;;;12.68;8.00;;;;;;;;;;5010425;28;20026;-65
2022/11/09 12:35:49;;;;;;;9.20;7.63;;;;;;;;;;5010412;28;20121;-67
2022/11/09 12:38:20;;;;;;;9.95;8.07;;;;;;;;;;5045015;28;20141;-67
2022/11/09 12:40:53;;;;;;;12.10;8.18;;;;;;;;;;5024214;28;20520;-67
2022/11/09 12:43:43;;;;;;;12.82;8.52;;;;;;;;;;5028982;28;20030;-67
2022/11/09 12:46:10;;;;;;;13.43;8.35;;;;;;;;;;5033286;28;20026;-66
2022/11/09 12:48:36;;;;;;;12.65;8.50;;;;;;;;;;5040595;28;20178;-67
2022/11/09 12:51:04;;;;;;;15.73;8.13;;;;;;;;;;5036389;28;20112;-67
2022/11/09 12:53:34;;;;;;;14.23;8.25;;;;;;;;;;5039122;28;20060;-67
2022/11/09 12:56:31;;;;;;;11.40;8.45;;;;;;;;;;5034814;28;20041;-68
2022/11/09 12:59:33;;;;;;;11.68;9.00;;;;;;;;;;5031449;28;20064;-69
2022/11/09 13:02:00;;;;;;;17.88;8.23;;;;;;;;;;5036008;28;20389;-66
2022/11/09 13:04:26;;;;;;;9.82;8.00;;;;;;;;;;5041682;28;20025;-66
2022/11/09 13:07:15;;;;;;;12.70;8.60;;;;;;;;;;5035478;28;20022;-67
2022/11/09 13:09:41;;;;;;;9.98;8.32;;;;;;;;;;5032618;28;20042;-67
2022/11/09 13:12:31;;;;;;;11.05;8.63;;;;;;;;;;5037436;28;20393;-67
2022/11/09 13:15:19;;;;;;;12.13;8.10;;;;;;;;;;5042095;28;20032;-69
2022/11/09 13:18:05;;;;;;;12.25;8.90;;;;;;;;;;5042682;28;20030;-67
2022/11/09 13:20:33;;;;;;;12.52;8.98;;;;;;;;;;5042399;28;20047;-70
2022/11/09 13:23:02;;;;;;;12.70;9.02;;;;;;;;;;5041795;28;20067;-68
2022/11/09 13:25:43;;;;;;;13.30;9.32;;;;;;;;;;5046081;28;20503;-70
2022/11/09 13:28:27;;;;;;;10.57;8.23;;;;;;;;;;5036484;28;20028;-69
2022/11/09 13:30:56;;;;;;;12.45;8.63;;;;;;;;;;5038947;28;20419;-68
2022/11/09 13:33:32;;;;;;;12.25;8.52;;;;;;;;;;5040390;28;20375;-68
2022/11/09 13:36:06;;;;;;;13.02;8.73;;;;;;;;;;5035272;28;20033;-68
2022/11/09 13:38:34;;;;;;;11.07;8.35;;;;;;;;;;5032484;28;20025;-68
2022/11/09 13:41:23;;;;;;;13.80;8.57;;;;;;;;;;5031404;28;20052;-68
2022/11/09 13:44:07;;;;;;;10.33;8.37;;;;;;;;;;5032757;28;20402;-68
2022/11/09 13:46:38;;;;;;;12.63;8.85;;;;;;;;;;5039616;28;20124;-70
2022/11/09 13:49:38;;;;;;;11.65;8.60;;;;;;;;;;5041365;28;20406;-68
2022/11/09 13:52:04;;;;;;;11.13;8.82;;;;;;;;;;5040145;28;20052;-68
2022/11/09 13:54:43;;;;;;;12.60;8.60;;;;;;;;;;5039963;28;20608;-67
2022/11/09 13:57:09;;;;;;;10.57;8.18;;;;;;;;;;5039994;28;20029;-68
2022/11/09 13:59:45;;;;;;;10.85;8.48;;;;;;;;;;5036699;28;20067;-68
2022/11/09 14:02:21;;;;;;;15.05;8.70;;;;;;;;;;5033372;28;20044;-67
2022/11/09 14:04:47;;;;;;;11.68;8.60;;;;;;;;;;5032624;28;20037;-69
2022/11/09 14:07:24;;;;;;;11.13;8.77;;;;;;;;;;5032038;28;20034;-68
2022/11/09 14:10:11;;;;;;;11.93;8.80;;;;;;;;;;5031494;28;20127;-67
2022/11/09 14:12:47;;;;;;;14.02;8.85;;;;;;;;;;5030855;28;20048;-69
2022/11/09 14:26:23;;;;;;;12.40;9.93;;;;;;;;;;5064901;28;20395;-68
2022/11/09 14:28:49;;;;;;;14.90;9.82;;;;;;;;;;5063621;28;20065;-68
2022/11/09 14:31:25;;;;;;;11.75;9.10;;;;;;;;;;5046070;28;20427;-67
2022/11/09 14:34:02;;;;;;;13.13;10.05;;;;;;;;;;5046679;28;20043;-73
2022/11/09 14:36:32;;;;;;;12.10;8.40;;;;;;;;;;5047422;28;20487;-68
2022/11/09 14:39:01;;;;;;;14.40;10.40;;;;;;;;;;5047955;28;20424;-67
2022/11/09 14:41:27;;;;;;;13.50;8.77;;;;;;;;;;5047808;28;20029;-68
2022/11/09 14:43:58;;;;;;;13.27;9.77;;;;;;;;;;5046500;28;20060;-67
2022/11/09 14:46:29;;;;;;;11.60;9.35;;;;;;;;;;5047341;28;20037;-67
2022/11/09 14:49:00;;;;;;;14.52;9.77;;;;;;;;;;5047363;28;20025;-65
2022/11/09 14:51:49;;;;;;;14.38;9.60;;;;;;;;;;5046653;28;20025;-66
2022/11/09 14:54:18;;;;;;;13.88;10.23;;;;;;;;;;5044106;28;20033;-66
2022/11/09 14:56:45;;;;;;;11.43;8.40;;;;;;;;;;5046765;28;20025;-72
2022/11/09 14:59:17;;;;;;;15.38;11.35;;;;;;;;;;5046650;28;20029;-66
2022/11/09 15:02:00;;;;;;;14.30;9.85;;;;;;;;;;5046130;28;20021;-65
2022/11/09 15:04:25;;;;;;;14.25;10.00;;;;;;;;;;5045735;28;20026;-65